Time;durP1;ratioP1;P1;durP2;ratioP2;P2;SDS_P1;SDS_P2;PMS_P1;PMS_P2;Temp;Humidity;BMP_temperature;BMP_pressure;BME280_temperature;BME280_humidity;BME280_pressure;Samples;Min_cycle;Max_cycle;Signal;HPM_P1;HPM_P2
2023/09/09 00:02:12;;;;;;;3.53;1.88;;;19.10;99.90;;;;;;5064608;28;20109;-91
2023/09/09 00:04:39;;;;;;;3.28;1.90;;;19.10;99.90;;;;;;5054434;28;20074;-92
2023/09/09 00:07:06;;;;;;;4.65;2.00;;;19.10;99.90;;;;;;5066560;28;20429;-91
2023/09/09 00:09:32;;;;;;;3.22;1.88;;;19.10;99.90;;;;;;5056242;28;20040;-91
2023/09/09 00:11:57;;;;;;;4.72;2.00;;;19.10;99.90;;;;;;5041777;28;20037;-91
2023/09/09 00:14:25;;;;;;;3.08;1.83;;;19.10;99.90;;;;;;5047204;28;20067;-91
2023/09/09 00:16:51;;;;;;;3.85;1.90;;;19.00;99.90;;;;;;5066860;28;20072;-91
2023/09/09 00:19:17;;;;;;;2.92;1.80;;;19.00;99.90;;;;;;5048463;28;20072;-91
2023/09/09 00:21:42;;;;;;;3.17;1.73;;;19.00;99.90;;;;;;5048392;28;20040;-91
2023/09/09 00:24:08;;;;;;;3.08;1.80;;;19.00;99.90;;;;;;5063724;28;20028;-91
2023/09/09 00:26:34;;;;;;;2.47;1.70;;;19.00;99.90;;;;;;5038698;28;20067;-92
2023/09/09 00:29:00;;;;;;;2.63;1.75;;;19.00;99.90;;;;;;5050234;28;20045;-91
2023/09/09 00:31:25;;;;;;;3.65;1.90;;;19.00;99.90;;;;;;5019998;28;20047;-91
2023/09/09 00:33:53;;;;;;;9.60;8.80;;;19.00;99.90;;;;;;5062785;28;20047;-92
2023/09/09 00:36:18;;;;;;;5.78;2.90;;;19.00;99.90;;;;;;5063811;28;20052;-91
2023/09/09 00:38:44;;;;;;;5.38;2.50;;;19.00;99.90;;;;;;5074884;28;20039;-91
2023/09/09 00:41:14;;;;;;;5.40;2.53;;;19.10;99.90;;;;;;5047983;28;20124;-91
2023/09/09 00:43:40;;;;;;;5.60;2.72;;;19.10;99.90;;;;;;5064583;28;20392;-91
2023/09/09 00:46:09;;;;;;;5.13;2.45;;;19.10;99.90;;;;;;5031147;28;20048;-90
2023/09/09 00:48:36;;;;;;;4.93;2.50;;;19.00;99.90;;;;;;5034720;28;20040;-91
2023/09/09 00:51:02;;;;;;;4.82;2.42;;;19.00;99.90;;;;;;5033600;28;20040;-91
2023/09/09 00:53:29;;;;;;;5.68;2.60;;;19.00;99.90;;;;;;5048943;28;20059;-91
2023/09/09 00:55:55;;;;;;;5.30;2.50;;;19.00;99.90;;;;;;5053411;28;20040;-92
2023/09/09 00:58:23;;;;;;;5.70;2.60;;;19.00;99.90;;;;;;5033375;28;20071;-91
2023/09/09 01:00:49;;;;;;;5.57;2.55;;;19.00;99.90;;;;;;5057770;28;20059;-91
2023/09/09 01:03:14;;;;;;;5.35;2.40;;;19.00;99.90;;;;;;5060527;28;20036;-90
2023/09/09 01:05:40;;;;;;;5.18;2.60;;;18.90;99.90;;;;;;5046551;28;20055;-91
2023/09/09 01:08:06;;;;;;;4.93;2.38;;;18.90;99.90;;;;;;5057221;28;20046;-91
2023/09/09 01:10:32;;;;;;;5.85;2.45;;;18.90;99.90;;;;;;5064884;28;20036;-91
2023/09/09 01:12:58;;;;;;;4.38;2.30;;;18.80;99.90;;;;;;5049161;28;20059;-91
2023/09/09 01:15:24;;;;;;;3.88;2.10;;;18.80;99.90;;;;;;5038902;28;20040;-91
2023/09/09 01:17:52;;;;;;;5.28;2.50;;;18.80;99.90;;;;;;5032748;28;20150;-91
2023/09/09 01:20:19;;;;;;;5.28;2.30;;;18.80;99.90;;;;;;5065572;28;20059;-91
2023/09/09 01:22:48;;;;;;;4.80;2.42;;;18.80;99.90;;;;;;5047127;28;20090;-91
2023/09/09 01:25:14;;;;;;;5.82;2.50;;;18.70;99.90;;;;;;5038894;28;20105;-91
2023/09/09 01:27:41;;;;;;;5.82;2.50;;;18.70;99.90;;;;;;5048364;28;20048;-91
2023/09/09 01:30:08;;;;;;;4.90;2.30;;;18.70;99.90;;;;;;5069008;28;21239;-91
2023/09/09 01:32:35;;;;;;;4.60;2.30;;;18.70;99.90;;;;;;5065585;28;20351;-91
2023/09/09 01:35:06;;;;;;;4.47;2.20;;;18.70;99.90;;;;;;5063805;28;20462;-90
2023/09/09 01:37:33;;;;;;;5.32;2.40;;;18.60;99.90;;;;;;5061306;28;20101;-91
2023/09/09 01:40:08;;;;;;;4.85;2.20;;;18.60;99.90;;;;;;5043148;28;20044;-91
2023/09/09 01:42:34;;;;;;;4.90;2.35;;;18.50;99.90;;;;;;5047378;28;20052;-91
2023/09/09 01:45:00;;;;;;;5.32;2.30;;;18.50;99.90;;;;;;5062497;28;20032;-91
2023/09/09 01:47:25;;;;;;;1.88;1.55;;;18.40;99.90;;;;;;5073998;28;20059;-90
2023/09/09 01:49:51;;;;;;;3.08;1.83;;;18.40;99.90;;;;;;5058091;28;20043;-91
2023/09/09 01:52:17;;;;;;;2.40;1.60;;;18.40;99.90;;;;;;5063183;28;20047;-90
2023/09/09 01:54:43;;;;;;;4.05;1.77;;;18.40;99.90;;;;;;5063064;28;20533;-91
2023/09/09 01:57:08;;;;;;;2.92;1.75;;;18.40;99.90;;;;;;5043285;28;20477;-91
2023/09/09 01:59:34;;;;;;;2.92;1.80;;;18.30;99.90;;;;;;5066537;28;20032;-91
2023/09/09 02:02:00;;;;;;;2.70;1.80;;;18.30;99.90;;;;;;5044587;28;20135;-91
2023/09/09 02:04:25;;;;;;;3.15;1.80;;;18.30;99.90;;;;;;5064015;28;20458;-91
2023/09/09 02:06:51;;;;;;;3.22;1.80;;;18.30;99.90;;;;;;5041864;28;20194;-91
2023/09/09 02:09:17;;;;;;;2.70;1.80;;;18.30;99.90;;;;;;5061816;28;20044;-91
2023/09/09 02:11:43;;;;;;;2.78;1.80;;;18.30;99.90;;;;;;5043357;28;20052;-90
2023/09/09 02:14:08;;;;;;;3.53;1.90;;;18.20;99.90;;;;;;5052119;28;20061;-90
2023/09/09 02:16:34;;;;;;;3.00;1.80;;;18.20;99.90;;;;;;5047082;28;20401;-91
2023/09/09 02:19:00;;;;;;;3.30;1.90;;;18.20;99.90;;;;;;5046769;28;20037;-91
2023/09/09 02:21:25;;;;;;;3.78;1.98;;;18.20;99.90;;;;;;5065029;28;20047;-90
2023/09/09 02:23:51;;;;;;;3.70;2.08;;;18.20;99.90;;;;;;5064164;28;20036;-90
2023/09/09 02:26:17;;;;;;;3.55;2.08;;;18.20;99.90;;;;;;5060066;28;20040;-91
2023/09/09 02:28:46;;;;;;;3.53;2.00;;;18.20;99.90;;;;;;5063533;28;20131;-91
2023/09/09 02:31:11;;;;;;;3.60;2.00;;;18.20;99.90;;;;;;5035411;28;20049;-91
2023/09/09 02:33:37;;;;;;;9.63;8.68;;;18.20;99.90;;;;;;5062007;28;20044;-90
2023/09/09 02:36:03;;;;;;;6.20;3.22;;;18.20;99.90;;;;;;5042602;28;20070;-91
2023/09/09 02:38:29;;;;;;;6.25;3.13;;;18.20;99.90;;;;;;5070791;28;20040;-91
2023/09/09 02:40:54;;;;;;;6.57;3.20;;;18.20;99.90;;;;;;5062114;28;20036;-90
2023/09/09 02:43:20;;;;;;;7.10;3.53;;;18.20;99.90;;;;;;5065966;28;20067;-90
2023/09/09 02:45:46;;;;;;;7.00;3.33;;;18.20;99.90;;;;;;5062941;28;20028;-91
2023/09/09 02:48:12;;;;;;;10.02;9.10;;;18.20;99.90;;;;;;5057164;28;20040;-91
2023/09/09 02:50:37;;;;;;;6.63;3.42;;;18.20;99.90;;;;;;5039270;28;20036;-90
2023/09/09 02:53:03;;;;;;;6.65;3.50;;;18.10;99.90;;;;;;5061090;28;20076;-91
2023/09/09 02:55:29;;;;;;;7.03;3.53;;;18.20;99.90;;;;;;5062567;28;20117;-90
2023/09/09 02:57:55;;;;;;;7.35;3.75;;;18.10;99.90;;;;;;5060749;28;20056;-91
2023/09/09 03:00:21;;;;;;;7.40;3.90;;;18.20;99.90;;;;;;5049534;28;20128;-91
2023/09/09 03:02:47;;;;;;;7.10;3.80;;;18.10;99.90;;;;;;5040387;28;20582;-90
2023/09/09 03:05:12;;;;;;;7.88;3.53;;;18.10;99.90;;;;;;5064580;28;20044;-90
2023/09/09 03:07:39;;;;;;;6.80;3.67;;;18.10;99.90;;;;;;5068975;28;20028;-90
2023/09/09 03:10:06;;;;;;;7.15;3.67;;;18.10;99.90;;;;;;5062753;28;20039;-90
2023/09/09 03:12:31;;;;;;;7.30;3.75;;;18.10;99.90;;;;;;5064486;28;20064;-91
2023/09/09 03:14:57;;;;;;;7.20;3.92;;;18.10;99.90;;;;;;5050982;28;20392;-90
2023/09/09 03:17:23;;;;;;;8.50;7.70;;;18.10;99.90;;;;;;5065809;28;20038;-90
2023/09/09 03:19:48;;;;;;;6.53;3.58;;;18.10;99.90;;;;;;5060401;28;20040;-91
2023/09/09 03:22:15;;;;;;;8.00;3.15;;;18.10;99.90;;;;;;5046127;28;20037;-91
2023/09/09 03:24:41;;;;;;;5.53;2.53;;;18.10;99.90;;;;;;5068708;28;20520;-90
2023/09/09 03:27:06;;;;;;;6.05;2.90;;;18.10;99.90;;;;;;5063595;28;20080;-91
2023/09/09 03:29:32;;;;;;;6.57;3.05;;;18.00;99.90;;;;;;5059194;28;20052;-91
2023/09/09 03:31:58;;;;;;;7.65;4.25;;;18.00;99.90;;;;;;5070921;28;20122;-91
2023/09/09 03:34:24;;;;;;;8.10;4.63;;;18.00;99.90;;;;;;5068987;28;20043;-90
2023/09/09 03:36:49;;;;;;;8.23;4.60;;;18.00;99.90;;;;;;5043486;28;20044;-90
2023/09/09 03:39:15;;;;;;;7.93;4.20;;;18.00;99.90;;;;;;5062735;28;20036;-90
2023/09/09 03:41:41;;;;;;;8.20;4.43;;;18.00;99.90;;;;;;5047309;28;20032;-90
2023/09/09 03:44:06;;;;;;;8.00;4.38;;;17.70;99.90;;;;;;5049874;28;20452;-91
2023/09/09 03:46:32;;;;;;;8.35;4.60;;;17.90;99.90;;;;;;5053506;28;20060;-91
2023/09/09 03:48:58;;;;;;;8.20;4.40;;;17.90;99.90;;;;;;5070387;28;20033;-90
2023/09/09 03:51:24;;;;;;;7.93;4.20;;;17.90;99.90;;;;;;5041260;28;20040;-91
2023/09/09 03:53:50;;;;;;;7.93;4.07;;;17.90;99.90;;;;;;5068073;28;20110;-90
2023/09/09 03:56:17;;;;;;;9.80;4.10;;;17.90;99.90;;;;;;5069144;28;20040;-90
2023/09/09 03:58:42;;;;;;;7.93;4.13;;;17.90;99.90;;;;;;5075437;28;20040;-91
2023/09/09 04:01:10;;;;;;;7.60;3.88;;;17.90;99.90;;;;;;5064986;28;20048;-90
2023/09/09 04:03:37;;;;;;;10.30;6.65;;;17.80;99.90;;;;;;5067357;28;20497;-90
2023/09/09 04:06:05;;;;;;;12.77;7.50;;;17.80;99.90;;;;;;5057890;28;20517;-90
2023/09/09 04:08:31;;;;;;;12.13;8.10;;;17.80;99.90;;;;;;5066577;28;20035;-91
2023/09/09 04:10:57;;;;;;;15.70;9.32;;;17.70;99.90;;;;;;5070503;28;20543;-90
2023/09/09 04:13:23;;;;;;;9.52;6.07;;;17.80;99.90;;;;;;5070490;28;20131;-90
2023/09/09 04:15:49;;;;;;;12.93;8.52;;;17.70;99.90;;;;;;5061169;28;20279;-90
2023/09/09 04:18:15;;;;;;;14.70;9.88;;;17.10;99.90;;;;;;5031836;28;20044;-90
2023/09/09 04:20:41;;;;;;;14.32;9.65;;;17.70;99.90;;;;;;5072428;28;20104;-90
2023/09/09 04:23:07;;;;;;;14.20;9.82;;;17.60;99.90;;;;;;5068887;28;20481;-89
2023/09/09 04:25:33;;;;;;;15.15;9.90;;;17.30;99.90;;;;;;5067804;28;20182;-90
2023/09/09 04:27:59;;;;;;;14.68;9.77;;;17.60;99.90;;;;;;5037830;28;20135;-90
2023/09/09 04:30:24;;;;;;;16.23;9.90;;;17.60;99.90;;;;;;5057470;28;20516;-91
2023/09/09 04:32:50;;;;;;;15.10;9.95;;;17.50;99.90;;;;;;5067866;28;20874;-90
2023/09/09 04:35:16;;;;;;;14.85;10.02;;;17.50;99.90;;;;;;5060348;28;20039;-90
2023/09/09 04:37:42;;;;;;;14.38;9.77;;;17.50;99.90;;;;;;5057155;28;20619;-90
2023/09/09 04:40:09;;;;;;;15.57;10.70;;;17.50;99.90;;;;;;5061231;28;20572;-90
2023/09/09 04:42:35;;;;;;;15.25;10.05;;;17.50;99.90;;;;;;5057907;28;20119;-90
2023/09/09 04:45:03;;;;;;;14.88;10.15;;;17.50;99.90;;;;;;5025446;28;20613;-89
2023/09/09 04:47:28;;;;;;;15.65;10.35;;;17.50;99.90;;;;;;5056347;28;20074;-90
2023/09/09 04:49:57;;;;;;;14.88;10.32;;;17.50;99.90;;;;;;5049466;28;20051;-90
2023/09/09 04:52:23;;;;;;;14.95;10.35;;;17.50;99.90;;;;;;5055156;28;20045;-90
2023/09/09 04:54:49;;;;;;;15.57;10.43;;;17.50;99.90;;;;;;5038371;28;20059;-89
2023/09/09 04:57:15;;;;;;;16.23;10.23;;;17.50;99.90;;;;;;5056513;28;20068;-90
2023/09/09 04:59:41;;;;;;;18.17;10.93;;;17.50;99.90;;;;;;5059982;28;20064;-89
2023/09/09 05:02:07;;;;;;;17.30;10.90;;;17.50;99.90;;;;;;5054991;28;20420;-90
2023/09/09 05:04:33;;;;;;;15.88;11.30;;;17.50;99.90;;;;;;5062552;28;20631;-90
2023/09/09 05:07:00;;;;;;;12.50;8.52;;;17.50;99.90;;;;;;5028772;28;20036;-90
2023/09/09 05:09:27;;;;;;;15.40;10.38;;;17.50;99.90;;;;;;5051650;28;20154;-90
2023/09/09 05:11:52;;;;;;;16.08;10.80;;;17.50;99.90;;;;;;5041848;28;20526;-90
2023/09/09 05:14:18;;;;;;;16.15;11.07;;;17.50;99.90;;;;;;5061936;28;20028;-90
2023/09/09 05:16:44;;;;;;;16.08;11.27;;;17.50;99.90;;;;;;5032625;28;20119;-90
2023/09/09 05:19:09;;;;;;;17.13;11.88;;;17.50;99.90;;;;;;5062918;28;20099;-89
2023/09/09 05:21:35;;;;;;;17.10;12.15;;;17.50;99.90;;;;;;5056436;28;20047;-89
2023/09/09 05:24:01;;;;;;;15.30;11.15;;;17.50;99.90;;;;;;5043006;28;20032;-89
2023/09/09 05:26:27;;;;;;;16.58;11.48;;;17.50;99.90;;;;;;5056021;28;20133;-90
2023/09/09 05:28:53;;;;;;;16.55;11.05;;;17.50;99.90;;;;;;5056894;28;20056;-89
2023/09/09 05:31:18;;;;;;;16.90;11.40;;;17.50;99.90;;;;;;5059061;28;20777;-90
2023/09/09 05:33:44;;;;;;;15.98;10.90;;;17.60;99.90;;;;;;5046919;28;20041;-90
2023/09/09 05:36:10;;;;;;;17.10;11.05;;;17.60;99.90;;;;;;5058663;28;20133;-89
2023/09/09 05:38:36;;;;;;;16.48;11.45;;;17.60;99.90;;;;;;5053517;28;20044;-90
2023/09/09 05:41:02;;;;;;;16.48;11.48;;;17.70;99.90;;;;;;5059573;28;20146;-89
2023/09/09 05:43:28;;;;;;;16.75;11.23;;;17.70;99.90;;;;;;5044399;28;20048;-89
2023/09/09 05:45:56;;;;;;;16.58;10.80;;;17.70;99.90;;;;;;5045402;28;20040;-88
2023/09/09 05:48:22;;;;;;;17.40;10.75;;;17.80;99.90;;;;;;5041283;28;20045;-89
2023/09/09 05:50:47;;;;;;;16.30;11.48;;;18.00;99.90;;;;;;5049548;28;20048;-90
2023/09/09 05:53:13;;;;;;;16.75;11.52;;;18.10;99.90;;;;;;5058157;28;20072;-89
2023/09/09 05:55:39;;;;;;;15.50;10.80;;;18.10;99.90;;;;;;5049418;28;20044;-90
2023/09/09 05:58:07;;;;;;;18.50;10.65;;;18.20;99.90;;;;;;5051457;28;20438;-90
2023/09/09 06:00:33;;;;;;;15.65;10.82;;;18.30;99.90;;;;;;5038884;28;20076;-90
2023/09/09 06:02:59;;;;;;;15.38;10.25;;;18.40;99.90;;;;;;5038197;28;20048;-90
2023/09/09 06:05:25;;;;;;;15.48;10.57;;;18.40;99.90;;;;;;5038700;28;20033;-89
2023/09/09 06:07:50;;;;;;;15.15;10.18;;;18.50;99.90;;;;;;5067218;28;20043;-90
2023/09/09 06:10:16;;;;;;;15.52;10.50;;;18.60;99.90;;;;;;5056939;28;20040;-90
2023/09/09 06:12:42;;;;;;;15.18;10.27;;;18.70;99.90;;;;;;5046488;28;20033;-90
2023/09/09 06:15:08;;;;;;;15.35;10.35;;;18.80;99.90;;;;;;5059217;28;20048;-89
2023/09/09 06:17:36;;;;;;;17.42;11.18;;;18.90;99.90;;;;;;5051857;28;20689;-89
2023/09/09 06:20:01;;;;;;;18.42;10.90;;;19.00;99.90;;;;;;5049462;28;20107;-90
2023/09/09 06:22:27;;;;;;;15.20;10.55;;;19.10;99.90;;;;;;5057536;28;20517;-90
2023/09/09 06:24:53;;;;;;;15.98;10.68;;;19.20;99.90;;;;;;5058320;28;20086;-91
2023/09/09 06:27:19;;;;;;;17.20;10.60;;;19.30;99.90;;;;;;5049563;28;20044;-90
2023/09/09 06:29:44;;;;;;;15.95;10.80;;;19.40;99.90;;;;;;5026204;28;20136;-90
2023/09/09 06:32:10;;;;;;;15.95;10.18;;;19.50;99.90;;;;;;5042288;28;20510;-90
2023/09/09 06:34:36;;;;;;;15.75;10.65;;;19.70;99.90;;;;;;5042373;28;20119;-90
2023/09/09 06:37:02;;;;;;;14.73;10.38;;;19.60;99.90;;;;;;5063792;28;20047;-90
2023/09/09 06:39:27;;;;;;;14.43;9.43;;;19.70;99.90;;;;;;5041654;28;20536;-90
2023/09/09 06:41:53;;;;;;;14.23;9.43;;;19.80;99.90;;;;;;5036282;28;20080;-90
2023/09/09 06:44:19;;;;;;;14.77;10.05;;;19.90;99.90;;;;;;5046711;28;20298;-90
2023/09/09 06:46:44;;;;;;;13.85;9.55;;;20.00;99.90;;;;;;5017126;28;20047;-91
2023/09/09 06:49:11;;;;;;;15.68;10.20;;;20.10;99.90;;;;;;5054143;28;20497;-90
2023/09/09 06:51:37;;;;;;;16.02;10.48;;;20.20;99.90;;;;;;5060950;28;20559;-91
2023/09/09 06:54:02;;;;;;;15.43;10.45;;;20.30;99.90;;;;;;5055301;28;20071;-91
2023/09/09 06:56:28;;;;;;;17.77;10.27;;;20.40;99.90;;;;;;5035274;28;20049;-91
2023/09/09 06:58:54;;;;;;;14.63;9.48;;;20.40;99.90;;;;;;5032510;28;20126;-90
2023/09/09 07:01:19;;;;;;;15.10;10.05;;;20.50;99.90;;;;;;5047089;28;20045;-91
2023/09/09 07:03:45;;;;;;;14.13;9.38;;;20.60;99.90;;;;;;5056559;28;20137;-91
2023/09/09 07:06:11;;;;;;;17.13;9.90;;;20.70;99.90;;;;;;5056169;28;20037;-91
2023/09/09 07:08:40;;;;;;;15.20;10.63;;;20.70;99.90;;;;;;5051436;28;20036;-89
2023/09/09 07:11:05;;;;;;;14.68;9.68;;;20.90;99.90;;;;;;5030446;28;20056;-89
2023/09/09 07:13:34;;;;;;;14.93;10.18;;;20.90;99.90;;;;;;5059711;28;20070;-90
2023/09/09 07:15:59;;;;;;;15.57;10.30;;;21.00;99.90;;;;;;5040786;28;20059;-89
2023/09/09 07:18:25;;;;;;;16.25;9.98;;;21.40;99.90;;;;;;5058555;28;20049;-88
2023/09/09 07:20:51;;;;;;;17.00;10.93;;;21.10;99.90;;;;;;5055315;28;20094;-89
2023/09/09 07:23:18;;;;;;;16.02;10.50;;;21.20;99.90;;;;;;5049159;28;20037;-90
2023/09/09 07:25:46;;;;;;;15.70;9.98;;;21.30;99.90;;;;;;5015993;28;20039;-89
2023/09/09 07:28:12;;;;;;;14.85;9.77;;;21.40;99.90;;;;;;5051161;28;20057;-90
2023/09/09 07:30:38;;;;;;;15.15;10.43;;;21.40;99.90;;;;;;5053837;28;20089;-90
2023/09/09 07:33:04;;;;;;;16.83;10.60;;;21.50;99.90;;;;;;5019375;28;20493;-90
2023/09/09 07:35:30;;;;;;;15.70;10.50;;;21.60;99.90;;;;;;5057027;28;20041;-90
2023/09/09 07:37:56;;;;;;;15.40;10.55;;;21.60;99.90;;;;;;5031139;28;20048;-90
2023/09/09 07:40:22;;;;;;;16.20;10.52;;;21.80;99.90;;;;;;5034139;28;20041;-90
2023/09/09 07:42:50;;;;;;;16.50;11.25;;;21.80;99.90;;;;;;5033408;28;20040;-90
2023/09/09 07:45:16;;;;;;;16.05;10.90;;;22.00;99.90;;;;;;5055356;28;20123;-89
2023/09/09 07:47:42;;;;;;;16.48;10.93;;;22.00;99.90;;;;;;5060324;28;20116;-90
2023/09/09 07:50:08;;;;;;;16.38;11.38;;;22.10;99.90;;;;;;5033046;28;20041;-89
2023/09/09 07:52:34;;;;;;;16.55;11.48;;;22.20;99.90;;;;;;5055815;28;20041;-90
2023/09/09 07:55:00;;;;;;;17.40;12.35;;;22.40;99.90;;;;;;5038808;28;21716;-90
2023/09/09 07:57:25;;;;;;;15.18;11.30;;;22.40;99.90;;;;;;5042385;28;20392;-88
2023/09/09 07:59:51;;;;;;;15.85;10.85;;;22.50;99.90;;;;;;5028284;28;20127;-89
2023/09/09 08:02:17;;;;;;;17.23;11.88;;;22.60;99.90;;;;;;5054205;28;20489;-89
2023/09/09 08:04:43;;;;;;;16.27;11.57;;;22.70;99.90;;;;;;5032516;28;20044;-89
2023/09/09 08:07:09;;;;;;;16.45;11.25;;;22.80;99.90;;;;;;5058855;28;20098;-89
2023/09/09 08:09:35;;;;;;;15.43;10.77;;;22.90;99.90;;;;;;5023480;28;20040;-90
2023/09/09 08:12:00;;;;;;;16.38;11.63;;;23.10;99.90;;;;;;5056498;28;20111;-88
2023/09/09 08:14:26;;;;;;;16.40;11.30;;;23.00;99.90;;;;;;5069470;28;20044;-93
2023/09/09 08:16:52;;;;;;;17.30;11.57;;;23.10;99.90;;;;;;5042185;28;20048;-89
2023/09/09 08:19:17;;;;;;;17.35;12.13;;;23.20;99.90;;;;;;5048331;28;20040;-89
2023/09/09 08:21:43;;;;;;;16.92;11.73;;;23.30;99.90;;;;;;5050711;28;20045;-89
2023/09/09 08:24:09;;;;;;;15.63;11.32;;;23.40;99.90;;;;;;5057540;28;20486;-90
2023/09/09 08:26:34;;;;;;;17.08;12.02;;;23.40;99.90;;;;;;5033296;28;20053;-89
2023/09/09 08:29:00;;;;;;;15.57;11.35;;;23.60;99.90;;;;;;5064285;28;20086;-90
2023/09/09 08:31:26;;;;;;;18.40;12.85;;;23.60;99.90;;;;;;5036075;28;21095;-91
2023/09/09 08:33:52;;;;;;;15.45;10.88;;;23.90;99.90;;;;;;5060051;28;20115;-92
2023/09/09 08:36:18;;;;;;;16.95;11.98;;;23.80;99.90;;;;;;5044593;28;20044;-92
2023/09/09 08:38:43;;;;;;;19.45;11.48;;;23.90;99.90;;;;;;5036724;28;20375;-92
2023/09/09 08:41:52;;;;;;;16.15;11.43;;;24.00;99.90;;;;;;5065129;28;20497;-91
2023/09/09 08:44:41;;;;;;;16.88;11.70;;;24.00;99.90;;;;;;5069192;28;20123;-91
2023/09/09 08:47:08;;;;;;;15.68;11.18;;;24.20;99.90;;;;;;5019391;28;20040;-92
2023/09/09 08:49:35;;;;;;;16.88;12.02;;;24.30;99.90;;;;;;5033029;28;20093;-91
2023/09/09 08:52:03;;;;;;;16.00;11.77;;;24.30;99.90;;;;;;5055041;28;20788;-91
2023/09/09 08:54:30;;;;;;;18.25;11.68;;;24.40;99.90;;;;;;5072000;28;20047;-92
2023/09/09 08:56:57;;;;;;;17.27;11.65;;;24.60;99.90;;;;;;5052675;28;20489;-92
2023/09/09 08:59:24;;;;;;;16.23;11.85;;;24.70;99.90;;;;;;5056560;28;20032;-91
2023/09/09 09:01:51;;;;;;;17.90;11.70;;;24.70;99.90;;;;;;5051224;28;20124;-90
2023/09/09 09:04:17;;;;;;;16.65;11.68;;;24.80;99.90;;;;;;5063520;28;20568;-91
2023/09/09 09:06:47;;;;;;;18.40;11.85;;;24.80;99.90;;;;;;5061615;28;20036;-91
2023/09/09 09:09:16;;;;;;;15.88;11.50;;;25.10;99.90;;;;;;5061486;28;20044;-91
2023/09/09 09:11:43;;;;;;;17.30;11.48;;;25.00;99.90;;;;;;5059204;28;20047;-90
2023/09/09 09:14:09;;;;;;;16.58;11.65;;;25.10;99.90;;;;;;5043208;28;20386;-91
2023/09/09 09:16:39;;;;;;;16.88;11.57;;;25.20;99.90;;;;;;5039702;28;20043;-90
2023/09/09 09:19:05;;;;;;;14.75;10.68;;;25.30;99.90;;;;;;5048130;28;20048;-91
2023/09/09 09:21:35;;;;;;;17.45;11.02;;;25.30;99.90;;;;;;5069729;28;20043;-91
2023/09/09 09:24:04;;;;;;;17.42;10.75;;;25.40;99.90;;;;;;5058287;28;20489;-90
2023/09/09 09:26:30;;;;;;;14.70;10.48;;;25.50;99.90;;;;;;5062291;28;20036;-90
2023/09/09 09:28:57;;;;;;;15.30;10.65;;;25.50;99.90;;;;;;5058000;28;20055;-90
2023/09/09 09:31:24;;;;;;;15.65;10.80;;;25.60;99.90;;;;;;5053764;28;20040;-89
2023/09/09 09:33:51;;;;;;;17.40;10.27;;;27.50;99.90;;;;;;5061495;28;20059;-90
2023/09/09 09:36:20;;;;;;;15.82;10.48;;;25.70;99.90;;;;;;5068030;28;20044;-90
2023/09/09 09:38:46;;;;;;;14.90;10.23;;;25.70;99.90;;;;;;5071909;28;20112;-90
2023/09/09 09:41:11;;;;;;;15.07;9.63;;;25.80;99.90;;;;;;5065406;28;20535;-90
2023/09/09 09:43:37;;;;;;;14.52;10.75;;;25.80;99.90;;;;;;5061301;28;20545;-90
2023/09/09 09:46:17;;;;;;;15.23;10.30;;;26.00;99.90;;;;;;5069606;28;20048;-89
2023/09/09 09:48:43;;;;;;;15.88;9.90;;;26.00;99.90;;;;;;5060447;28;20036;-90
2023/09/09 09:51:09;;;;;;;14.80;10.43;;;26.10;99.90;;;;;;5064544;28;20055;-89
2023/09/09 09:53:57;;;;;;;16.77;10.32;;;26.10;99.90;;;;;;5064205;28;20055;-90
2023/09/09 09:56:23;;;;;;;16.25;9.75;;;26.30;99.90;;;;;;5063746;28;20060;-90
2023/09/09 09:58:50;;;;;;;15.30;9.30;;;26.40;99.90;;;;;;5065519;28;20393;-90
2023/09/09 10:01:16;;;;;;;13.85;9.23;;;26.40;99.90;;;;;;5061574;28;20084;-90
2023/09/09 10:03:55;;;;;;;15.82;9.50;;;25.40;99.90;;;;;;5070237;28;20091;-90
2023/09/09 10:06:28;;;;;;;14.73;9.60;;;26.50;99.90;;;;;;5062238;28;20559;-90
2023/09/09 10:09:25;;;;;;;15.38;9.68;;;26.50;99.90;;;;;;5062492;28;20553;-90
2023/09/09 10:11:57;;;;;;;13.48;8.90;;;26.60;99.90;;;;;;5044834;28;20127;-90
2023/09/09 10:14:26;;;;;;;12.65;8.45;;;26.70;99.90;;;;;;5046644;28;20044;-90
2023/09/09 10:16:56;;;;;;;12.18;7.80;;;26.70;99.90;;;;;;5063419;28;20267;-90
2023/09/09 10:19:23;;;;;;;12.30;8.25;;;26.70;99.90;;;;;;5063512;28;20516;-90
2023/09/09 10:21:50;;;;;;;15.70;8.70;;;26.80;99.90;;;;;;5063654;28;20104;-90
2023/09/09 10:24:17;;;;;;;13.68;8.85;;;27.00;99.90;;;;;;5064657;28;20074;-90
2023/09/09 10:26:44;;;;;;;13.52;8.25;;;27.00;99.90;;;;;;5063103;28;20048;-90
2023/09/09 10:29:10;;;;;;;13.25;7.72;;;27.10;99.90;;;;;;5070357;28;20127;-90
2023/09/09 10:31:36;;;;;;;15.27;8.18;;;27.10;99.90;;;;;;5061556;28;20044;-90
2023/09/09 10:34:03;;;;;;;13.88;8.27;;;27.30;99.90;;;;;;5069634;28;20036;-90
2023/09/09 10:36:36;;;;;;;12.43;7.43;;;27.20;99.90;;;;;;5061898;28;20562;-90
2023/09/09 10:39:03;;;;;;;12.98;7.60;;;27.20;99.90;;;;;;5063082;28;20123;-90
2023/09/09 10:41:31;;;;;;;12.00;7.95;;;27.30;99.90;;;;;;5064370;28;20547;-90
2023/09/09 10:43:57;;;;;;;13.65;6.90;;;27.30;99.90;;;;;;5061338;28;20040;-91
2023/09/09 10:46:37;;;;;;;12.13;7.03;;;27.40;99.90;;;;;;5043872;28;20042;-90
2023/09/09 10:49:04;;;;;;;10.52;6.10;;;27.50;99.90;;;;;;5064727;28;20040;-90
2023/09/09 10:51:49;;;;;;;9.82;5.68;;;27.50;99.90;;;;;;5072974;28;20044;-90
2023/09/09 10:54:15;;;;;;;9.25;4.82;;;27.60;99.90;;;;;;5061599;28;20055;-90
2023/09/09 10:56:50;;;;;;;8.63;4.97;;;27.60;99.90;;;;;;5049321;28;20040;-90
2023/09/09 10:59:24;;;;;;;9.52;5.25;;;27.60;99.90;;;;;;5062834;28;20077;-90
2023/09/09 11:02:08;;;;;;;9.68;5.43;;;27.60;99.90;;;;;;5042945;28;20536;-90
2023/09/09 11:04:38;;;;;;;9.10;4.97;;;27.70;99.90;;;;;;5071414;28;20374;-91
2023/09/09 11:07:09;;;;;;;9.68;5.88;;;27.70;99.90;;;;;;5051422;28;20495;-90
2023/09/09 11:09:36;;;;;;;10.02;5.50;;;27.80;99.90;;;;;;5063777;28;20036;-90
2023/09/09 11:12:16;;;;;;;10.85;6.60;;;27.80;99.90;;;;;;5054251;28;20115;-91
2023/09/09 11:14:47;;;;;;;11.73;6.88;;;27.80;99.90;;;;;;5061987;28;20525;-90
2023/09/09 11:17:13;;;;;;;11.23;7.47;;;27.70;99.90;;;;;;5064015;28;20389;-91
2023/09/09 11:19:41;;;;;;;10.73;6.65;;;27.70;99.90;;;;;;5047764;28;20123;-91
2023/09/09 11:22:07;;;;;;;11.80;7.28;;;27.80;99.90;;;;;;5060856;28;20044;-89
2023/09/09 11:24:36;;;;;;;12.77;7.90;;;27.80;99.90;;;;;;5059430;28;20486;-91
2023/09/09 11:27:02;;;;;;;11.00;7.47;;;27.80;99.90;;;;;;5061352;28;20508;-90
2023/09/09 11:29:30;;;;;;;12.30;8.35;;;27.80;99.90;;;;;;5060785;28;20059;-91
2023/09/09 11:31:56;;;;;;;12.63;8.10;;;27.10;99.90;;;;;;5063495;28;20059;-90
2023/09/09 11:34:33;;;;;;;12.02;8.48;;;27.70;99.90;;;;;;5063391;28;20046;-91
2023/09/09 11:37:03;;;;;;;11.43;7.80;;;27.80;99.90;;;;;;5062126;28;20131;-91
2023/09/09 11:39:28;;;;;;;11.68;8.18;;;27.80;99.90;;;;;;5072124;28;20048;-92
2023/09/09 11:41:54;;;;;;;12.52;9.00;;;27.80;99.90;;;;;;5073752;28;20547;-91
2023/09/09 11:44:20;;;;;;;12.63;8.75;;;27.70;99.90;;;;;;5046863;28;20420;-91
2023/09/09 11:46:47;;;;;;;13.85;8.88;;;27.60;99.90;;;;;;5062760;28;20037;-91
2023/09/09 11:49:18;;;;;;;11.63;8.38;;;27.60;99.90;;;;;;5061949;28;20207;-91
2023/09/09 11:51:45;;;;;;;12.20;8.10;;;27.60;99.90;;;;;;5043704;28;20352;-91
2023/09/09 11:54:17;;;;;;;11.48;7.68;;;27.50;99.90;;;;;;5064175;28;20512;-91
2023/09/09 11:56:43;;;;;;;13.65;8.40;;;27.50;99.90;;;;;;5068993;28;20036;-91
2023/09/09 11:59:10;;;;;;;12.35;8.05;;;27.60;99.90;;;;;;5075766;28;20032;-91
2023/09/09 12:01:46;;;;;;;11.52;7.70;;;27.90;99.90;;;;;;5067926;28;20114;-91
2023/09/09 12:04:13;;;;;;;10.45;6.22;;;27.60;99.90;;;;;;5060356;28;20078;-89
2023/09/09 12:06:45;;;;;;;10.48;6.47;;;27.70;99.90;;;;;;5066851;28;20055;-91
2023/09/09 12:09:12;;;;;;;12.10;8.27;;;27.70;99.90;;;;;;5069997;28;20041;-91
2023/09/09 12:11:41;;;;;;;11.43;7.38;;;27.70;99.90;;;;;;5043384;28;20114;-92
2023/09/09 12:14:07;;;;;;;12.05;7.88;;;27.70;99.90;;;;;;5052366;28;20044;-92
2023/09/09 12:16:34;;;;;;;11.93;7.57;;;27.60;99.90;;;;;;5066854;28;20455;-92
2023/09/09 12:19:00;;;;;;;11.00;7.40;;;27.60;99.90;;;;;;5052333;28;20051;-91
2023/09/09 12:21:25;;;;;;;12.20;7.70;;;27.60;99.90;;;;;;5038125;28;20048;-90
2023/09/09 12:24:00;;;;;;;11.48;6.97;;;27.40;99.90;;;;;;5076523;28;20047;-92
2023/09/09 12:26:26;;;;;;;12.93;7.75;;;27.60;99.90;;;;;;5065827;28;20132;-92
2023/09/09 12:29:10;;;;;;;13.20;8.07;;;27.70;99.90;;;;;;5061079;28;20052;-92
2023/09/09 12:31:53;;;;;;;11.55;7.28;;;27.70;99.90;;;;;;5056263;28;20056;-92
2023/09/09 12:34:23;;;;;;;12.55;8.00;;;27.70;99.90;;;;;;5054970;28;20056;-92
2023/09/09 12:36:49;;;;;;;11.70;6.75;;;27.60;99.90;;;;;;5058465;28;20062;-92